Glenham, South Dakota
Current Conditions -  °F | °C
As of 12:52 PM on Wednesday 26 Nov 2014 (Local Time) from KMBG Reporting Station
Light Snow Light Snow  
Wind Chill:   Ceiling: 2900
Heat Index: 14°   Visibility: 3mi
Dew Point:   Wind: 5mph
Humidity: 74%   Direction: 10°N
Pressure: 30.32"   Gusts: NA
Location:  45.53°N, 100.27°W
Report Text: KMBG 261852Z AUTO 01004KT 3SM -SN BKN029 OVC041 M10/M14 A3032 RMK AO2 SLP301 P0000 T11001139
Loading
Personal Weather Stations






























Interactive Weather Map New forecast layout! Learn more

10-Day Weather Forecast

Advertisements
Track Severe Weather on mobile